METAR K3S8 282255Z AUTO 00000KT 10SM 31/13 A3001


AIRPORT ID: 3S8

DATE(M/D/Y): 5/28/2017 22:55 Z 15:55 L


WIND DIRECT: 20

WIND SPEED: 0 KT

WIND CONDITIONS:

VISIBILTY: 10 SM 9999 M

TEMPERATURE: 88 F 31 C

DEW POINT: 55 F 13 C

ALTIMETER: A3001 Q1016

DENSITY ALT: 3000 FT

HUMID: 32%

LCL: Above 5,000 FT


RADIO CHECK: 0

ADVISORIES: 1

GREETINGS: 0

CONVERSATIONS: 11